createdAt,value
2023-04-11T00:01:20.352Z,18.01
2023-04-11T00:03:49.542Z,17.97
2023-04-11T00:06:18.139Z,17.96
2023-04-11T00:08:48.076Z,17.94
2023-04-11T00:11:18.404Z,17.90
2023-04-11T00:13:48.856Z,17.86
2023-04-11T00:16:21.125Z,17.78
2023-04-11T00:18:49.721Z,17.76
2023-04-11T00:21:20.634Z,17.75
2023-04-11T00:23:49.145Z,17.74
2023-04-11T00:26:17.690Z,17.70
2023-04-11T00:28:52.580Z,17.65
2023-04-11T00:31:24.460Z,17.64
2023-04-11T00:33:56.463Z,17.64
2023-04-11T00:36:25.669Z,17.62
2023-04-11T00:38:58.606Z,17.63
2023-04-11T00:41:31.951Z,17.58
2023-04-11T00:44:03.228Z,17.55
2023-04-11T00:46:32.707Z,17.54
2023-04-11T00:49:01.339Z,17.56
2023-04-11T00:51:32.564Z,17.53
2023-04-11T00:54:01.822Z,17.53
2023-04-11T00:56:31.758Z,17.49
2023-04-11T00:59:01.830Z,17.51
2023-04-11T01:01:31.469Z,17.53
2023-04-11T01:04:02.535Z,17.55
2023-04-11T01:06:31.382Z,17.58
2023-04-11T01:09:00.490Z,17.55
2023-04-11T01:11:29.220Z,17.48
2023-04-11T01:13:57.719Z,17.45
2023-04-11T01:16:27.439Z,17.42
2023-04-11T01:18:56.614Z,17.44
2023-04-11T01:21:27.243Z,17.41
2023-04-11T01:23:56.677Z,17.41
2023-04-11T01:26:25.017Z,17.41
2023-04-11T01:28:54.044Z,17.35
2023-04-11T01:31:22.989Z,17.31
2023-04-11T01:33:51.574Z,17.29
2023-04-11T01:36:20.479Z,17.28
2023-04-11T01:38:51.267Z,17.26
2023-04-11T01:41:19.781Z,17.23
2023-04-11T01:43:48.115Z,17.23
2023-04-11T01:46:16.825Z,17.24
2023-04-11T01:48:45.937Z,17.22
2023-04-11T01:51:15.638Z,17.17
2023-04-11T01:53:47.587Z,17.12
2023-04-11T01:56:16.003Z,17.07
2023-04-11T01:58:45.338Z,17.04
2023-04-11T02:01:19.865Z,17.00
2023-04-11T02:03:49.094Z,16.96
2023-04-11T02:06:17.693Z,17.00
2023-04-11T02:08:54.181Z,17.01
2023-04-11T02:11:23.946Z,16.98
2023-04-11T02:13:53.098Z,16.95
2023-04-11T02:16:26.138Z,16.94
2023-04-11T02:18:55.484Z,16.90
2023-04-11T02:21:24.093Z,16.82
2023-04-11T02:23:55.628Z,16.76
2023-04-11T02:26:26.899Z,16.74
2023-04-11T02:28:57.701Z,16.72
2023-04-11T02:31:28.826Z,16.71
2023-04-11T02:33:57.510Z,16.73
2023-04-11T02:36:27.036Z,16.72
2023-04-11T02:38:55.834Z,16.70
2023-04-11T02:41:24.803Z,16.67
2023-04-11T02:43:54.285Z,16.65
2023-04-11T02:46:23.861Z,16.65
2023-04-11T02:48:52.431Z,16.66
2023-04-11T02:51:25.899Z,16.61
2023-04-11T02:53:54.736Z,16.54
2023-04-11T02:56:26.549Z,16.48
2023-04-11T02:58:58.476Z,16.45
2023-04-11T03:01:27.589Z,16.42
2023-04-11T03:04:00.526Z,16.41
2023-04-11T03:06:38.156Z,16.44
2023-04-11T03:09:06.989Z,16.42
2023-04-11T03:13:52.335Z,15.31
2023-04-11T03:16:19.836Z,16.64
2023-04-11T03:18:48.633Z,16.67
2023-04-11T03:21:15.929Z,16.65
2023-04-11T03:23:54.572Z,16.63
2023-04-11T03:26:26.780Z,16.61
2023-04-11T03:28:55.963Z,16.60
2023-04-11T03:31:24.394Z,16.55
2023-04-11T03:33:51.623Z,16.50
2023-04-11T03:36:18.935Z,16.45
2023-04-11T03:38:47.490Z,16.42
2023-04-11T03:41:14.930Z,16.39
2023-04-11T03:43:42.834Z,16.40
2023-04-11T03:46:10.397Z,16.40
2023-04-11T03:48:41.214Z,16.39
2023-04-11T03:51:09.095Z,16.44
2023-04-11T03:53:43.999Z,16.43
2023-04-11T03:56:21.674Z,16.44
2023-04-11T03:58:49.004Z,16.45
2023-04-11T04:01:16.644Z,16.46
2023-04-11T04:03:44.889Z,16.46
2023-04-11T04:06:13.326Z,16.51
2023-04-11T04:08:42.177Z,16.56
2023-04-11T04:11:10.265Z,16.61
2023-04-11T04:13:37.852Z,16.61
2023-04-11T04:16:11.833Z,16.66
2023-04-11T04:18:41.123Z,16.65
2023-04-11T04:21:08.312Z,16.65
2023-04-11T04:23:35.624Z,16.64
2023-04-11T04:26:24.540Z,16.69
2023-04-11T04:29:09.517Z,16.78
2023-04-11T04:31:52.436Z,16.81
2023-04-11T04:34:24.035Z,16.87
2023-04-11T04:36:56.033Z,16.91
2023-04-11T04:39:29.557Z,17.03
2023-04-11T04:42:01.113Z,17.11
2023-04-11T04:44:53.975Z,17.19
2023-04-11T04:47:24.689Z,17.27
2023-04-11T04:49:55.797Z,17.36
2023-04-11T04:52:27.147Z,17.46
2023-04-11T04:54:57.422Z,17.53
2023-04-11T04:57:31.457Z,17.59
2023-04-11T04:59:59.874Z,17.68
2023-04-11T05:02:27.280Z,17.76
2023-04-11T05:04:56.093Z,17.84
2023-04-11T05:07:23.299Z,17.92
2023-04-11T05:09:51.628Z,18.00
2023-04-11T05:12:26.509Z,18.10
2023-04-11T05:14:56.295Z,18.18
2023-04-11T05:17:27.232Z,18.26
2023-04-11T05:19:55.673Z,18.34
2023-04-11T05:22:22.669Z,18.48
2023-04-11T05:24:56.454Z,18.63
2023-04-11T05:27:23.409Z,18.73
2023-04-11T05:29:50.930Z,18.83
2023-04-11T05:32:21.271Z,18.99
2023-04-11T05:34:58.211Z,19.06
2023-04-11T05:37:46.646Z,19.22
2023-04-11T05:40:13.856Z,19.32
2023-04-11T05:42:42.202Z,19.34
2023-04-11T05:45:11.970Z,19.42
2023-04-11T05:47:39.295Z,19.50
2023-04-11T05:50:07.980Z,19.59
2023-04-11T05:52:35.159Z,19.71
2023-04-11T05:55:04.010Z,19.81
2023-04-11T05:57:31.620Z,19.90
2023-04-11T06:00:01.326Z,19.94
2023-04-11T06:02:30.272Z,20.08
2023-04-11T06:04:57.558Z,20.17
2023-04-11T06:07:27.167Z,20.26
2023-04-11T06:09:54.270Z,20.36
2023-04-11T06:12:22.217Z,20.46
2023-04-11T06:14:49.980Z,20.58
2023-04-11T06:17:17.074Z,20.61
2023-04-11T06:19:47.475Z,20.67
2023-04-11T06:22:14.614Z,20.77
2023-04-11T06:24:41.640Z,20.88
2023-04-11T06:27:13.527Z,20.93
2023-04-11T06:29:41.008Z,20.96
2023-04-11T06:32:07.981Z,21.06
2023-04-11T06:34:35.189Z,21.17
2023-04-11T06:37:03.400Z,21.30
2023-04-11T06:39:30.313Z,21.39
2023-04-11T06:41:57.079Z,21.47
2023-04-11T06:44:25.379Z,21.52
2023-04-11T06:47:00.194Z,21.54
2023-04-11T06:49:28.037Z,21.56
2023-04-11T06:51:55.517Z,21.69
2023-04-11T06:54:23.680Z,21.65
2023-04-11T06:56:51.104Z,21.72
2023-04-11T06:59:24.731Z,21.76
2023-04-11T07:01:52.096Z,21.71
2023-04-11T07:04:19.192Z,21.75
2023-04-11T07:06:50.021Z,21.75
2023-04-11T07:09:17.896Z,21.79
2023-04-11T07:11:45.745Z,21.83
2023-04-11T07:14:16.787Z,21.89
2023-04-11T07:16:44.042Z,21.94
2023-04-11T07:19:11.270Z,21.99
2023-04-11T07:21:38.362Z,22.07
2023-04-11T07:24:06.221Z,22.15
2023-04-11T07:26:34.824Z,22.24
2023-04-11T07:29:02.198Z,22.30
2023-04-11T07:31:29.484Z,22.30
2023-04-11T07:33:56.509Z,22.30
2023-04-11T07:36:26.149Z,22.33
2023-04-11T07:38:53.581Z,22.37
2023-04-11T07:41:20.911Z,22.42
2023-04-11T07:43:48.267Z,22.40
2023-04-11T07:46:15.323Z,22.45
2023-04-11T07:48:44.903Z,22.48
2023-04-11T07:51:11.808Z,22.46
2023-04-11T07:53:38.922Z,22.51
2023-04-11T07:56:06.377Z,22.52
2023-04-11T07:58:33.434Z,22.48
2023-04-11T08:01:02.404Z,22.50
2023-04-11T08:03:31.636Z,22.49
2023-04-11T08:05:58.781Z,22.58
2023-04-11T08:08:29.924Z,22.61
2023-04-11T08:10:56.847Z,22.62
2023-04-11T08:13:23.849Z,22.71
2023-04-11T08:15:52.152Z,22.77
2023-04-11T08:18:23.688Z,22.80
2023-04-11T08:20:50.551Z,22.84
2023-04-11T08:23:21.110Z,22.89
2023-04-11T08:25:48.457Z,22.98
2023-04-11T08:28:15.406Z,23.06
2023-04-11T08:30:43.159Z,23.18
2023-04-11T08:33:11.693Z,23.28
2023-04-11T08:35:42.380Z,23.41
2023-04-11T08:38:10.374Z,23.39
2023-04-11T08:40:37.553Z,23.38
2023-04-11T08:43:09.584Z,23.45
2023-04-11T08:45:36.486Z,23.54
2023-04-11T08:48:03.670Z,23.62
2023-04-11T08:50:31.486Z,23.70
2023-04-11T08:53:02.989Z,23.77
2023-04-11T08:55:31.291Z,23.88
2023-04-11T08:58:02.440Z,23.94
2023-04-11T09:00:31.993Z,23.94
2023-04-11T09:03:03.699Z,23.97
2023-04-11T09:05:39.719Z,24.00
2023-04-11T09:08:08.948Z,24.14
2023-04-11T09:10:36.863Z,24.22
2023-04-11T09:13:23.636Z,24.32
2023-04-11T09:16:09.890Z,24.46
2023-04-11T09:18:38.465Z,24.58
2023-04-11T09:21:10.320Z,24.62
2023-04-11T09:23:38.021Z,24.74
2023-04-11T09:26:06.272Z,24.89
2023-04-11T09:28:53.012Z,25.00
2023-04-11T09:31:20.897Z,25.17
2023-04-11T09:33:55.350Z,25.28
2023-04-11T09:36:23.497Z,25.39
2023-04-11T09:38:53.594Z,25.50
2023-04-11T09:41:31.015Z,25.58
2023-04-11T09:43:58.256Z,25.75
2023-04-11T09:46:25.664Z,25.90
2023-04-11T09:48:54.275Z,26.01
2023-04-11T09:51:35.180Z,26.09
2023-04-11T09:54:04.220Z,26.12
2023-04-11T09:56:33.663Z,26.15
2023-04-11T09:59:01.190Z,26.19
2023-04-11T10:01:28.378Z,26.23
2023-04-11T10:03:56.060Z,26.32
2023-04-11T10:07:03.310Z,26.41
2023-04-11T10:09:31.868Z,26.55
2023-04-11T10:12:02.217Z,26.64
2023-04-11T10:14:39.415Z,26.65
2023-04-11T10:17:16.937Z,26.69
2023-04-11T10:19:47.592Z,26.69
2023-04-11T10:22:42.643Z,26.64
2023-04-11T10:25:16.518Z,26.69
2023-04-11T10:27:48.710Z,26.66
2023-04-11T10:30:16.189Z,26.67
2023-04-11T10:33:08.730Z,26.74
2023-04-11T10:35:35.749Z,26.84
2023-04-11T10:38:02.781Z,26.84
2023-04-11T10:40:29.772Z,26.87
2023-04-11T10:42:57.685Z,26.92
2023-04-11T10:45:28.002Z,26.96
2023-04-11T10:47:58.449Z,27.04
2023-04-11T10:50:28.803Z,26.96
2023-04-11T10:53:04.400Z,26.94
2023-04-11T10:55:47.875Z,26.97
2023-04-11T10:58:19.273Z,27.01
2023-04-11T11:00:47.072Z,26.98
2023-04-11T11:03:24.543Z,26.95
2023-04-11T11:05:58.417Z,26.90
2023-04-11T11:08:33.791Z,26.86
2023-04-11T11:11:01.763Z,26.84
2023-04-11T11:13:43.015Z,26.81
2023-04-11T11:16:13.766Z,26.78
2023-04-11T11:18:41.389Z,26.73
2023-04-11T11:21:14.128Z,26.58
2023-04-11T11:23:53.935Z,26.54
2023-04-11T11:26:21.428Z,26.48
2023-04-11T11:28:48.365Z,26.48
2023-04-11T11:31:15.476Z,26.50
2023-04-11T11:33:42.818Z,26.55
2023-04-11T11:36:11.200Z,26.54
2023-04-11T11:38:37.959Z,26.60
2023-04-11T11:41:04.761Z,26.66
2023-04-11T11:43:35.437Z,26.73
2023-04-11T11:46:09.598Z,26.76
2023-04-11T11:48:37.835Z,26.75
2023-04-11T11:51:05.582Z,26.78
2023-04-11T11:53:33.474Z,26.85
2023-04-11T11:56:11.930Z,26.94
2023-04-11T11:58:44.053Z,27.01
2023-04-11T12:03:41.621Z,27.06
2023-04-11T12:06:10.184Z,27.06
2023-04-11T12:08:41.043Z,27.06
2023-04-11T12:11:16.150Z,27.08
2023-04-11T12:13:45.028Z,27.06
2023-04-11T12:16:13.872Z,27.03
2023-04-11T12:18:41.576Z,27.09
2023-04-11T12:21:08.573Z,27.10
2023-04-11T12:23:35.477Z,27.06
2023-04-11T12:26:02.815Z,26.90
2023-04-11T12:28:30.456Z,26.86
2023-04-11T12:30:57.282Z,26.84
2023-04-11T12:33:24.102Z,26.85
2023-04-11T12:35:52.233Z,26.88
2023-04-11T12:38:23.229Z,26.92
2023-04-11T12:41:00.384Z,26.96
2023-04-11T12:43:35.987Z,26.94
2023-04-11T12:46:03.344Z,26.88
2023-04-11T12:48:30.876Z,26.84
2023-04-11T12:51:02.306Z,26.78
2023-04-11T12:53:30.303Z,26.67
2023-04-11T12:55:57.158Z,26.66
2023-04-11T12:58:24.424Z,26.71
2023-04-11T13:00:51.789Z,26.80
2023-04-11T13:03:19.352Z,26.89
2023-04-11T13:05:48.167Z,27.01
2023-04-11T13:08:15.495Z,27.18
2023-04-11T13:10:42.467Z,27.32
2023-04-11T13:13:18.078Z,27.47
2023-04-11T13:15:46.455Z,27.64
2023-04-11T13:18:13.920Z,27.65
2023-04-11T13:20:42.112Z,27.71
2023-04-11T13:23:10.478Z,27.71
2023-04-11T13:25:38.675Z,27.76
2023-04-11T13:28:05.950Z,27.83
2023-04-11T13:30:32.838Z,27.78
2023-04-11T13:33:00.551Z,27.73
2023-04-11T13:35:27.803Z,27.80
2023-04-11T13:37:54.946Z,27.66
2023-04-11T13:40:21.968Z,27.54
2023-04-11T13:42:48.993Z,27.51
2023-04-11T13:45:16.025Z,27.49
2023-04-11T13:47:44.514Z,27.44
2023-04-11T13:50:12.100Z,27.46
2023-04-11T13:52:39.411Z,27.56
2023-04-11T13:55:08.166Z,27.70
2023-04-11T13:57:35.187Z,27.61
2023-04-11T14:00:11.235Z,27.60
2023-04-11T14:02:40.221Z,27.52
2023-04-11T14:05:08.627Z,27.49
2023-04-11T14:07:35.621Z,27.43
2023-04-11T14:10:03.133Z,27.35
2023-04-11T14:12:33.410Z,27.37
2023-04-11T14:15:00.573Z,27.35
2023-04-11T14:17:29.154Z,27.27
2023-04-11T14:20:00.037Z,27.12
2023-04-11T14:22:27.491Z,26.93
2023-04-11T14:24:54.515Z,26.85
2023-04-11T14:27:21.588Z,26.78
2023-04-11T14:29:48.520Z,26.68
2023-04-11T14:32:15.516Z,26.65
2023-04-11T14:34:42.787Z,26.58
2023-04-11T14:37:10.035Z,26.58
2023-04-11T14:39:39.424Z,26.58
2023-04-11T14:42:06.679Z,26.48
2023-04-11T14:44:35.081Z,26.39
2023-04-11T14:47:01.860Z,26.32
2023-04-11T14:49:29.492Z,26.21
2023-04-11T14:52:02.350Z,26.20
2023-04-11T14:54:29.910Z,26.19
2023-04-11T14:56:57.322Z,26.23
2023-04-11T14:59:24.142Z,26.18
2023-04-11T15:01:51.971Z,26.14
2023-04-11T15:04:19.431Z,26.07
2023-04-11T15:06:48.075Z,26.01
2023-04-11T15:09:19.515Z,25.99
2023-04-11T15:11:46.565Z,25.98
2023-04-11T15:14:15.551Z,25.94
2023-04-11T15:16:44.374Z,25.84
2023-04-11T15:19:11.353Z,25.79
2023-04-11T15:21:38.727Z,25.73
2023-04-11T15:24:05.967Z,25.63
2023-04-11T15:26:33.496Z,25.54
2023-04-11T15:29:59.915Z,24.17
2023-04-11T15:32:29.135Z,25.33
2023-04-11T15:34:58.440Z,25.34
2023-04-11T15:37:29.351Z,25.26
2023-04-11T15:39:58.216Z,25.17
2023-04-11T15:42:29.620Z,25.06
2023-04-11T15:44:58.363Z,24.95
2023-04-11T15:47:27.300Z,24.94
2023-04-11T15:49:55.760Z,24.95
2023-04-11T15:52:24.217Z,24.87
2023-04-11T15:54:52.548Z,24.79
2023-04-11T15:57:20.902Z,24.73
2023-04-11T15:59:49.575Z,24.68
2023-04-11T16:02:19.808Z,24.67
2023-04-11T16:04:51.261Z,24.64
2023-04-11T16:07:23.451Z,24.57
2023-04-11T16:09:52.703Z,24.57
2023-04-11T16:12:21.994Z,24.54
2023-04-11T16:14:50.404Z,24.56
2023-04-11T16:17:21.149Z,24.53
2023-04-11T16:19:51.668Z,24.43
2023-04-11T16:22:21.030Z,24.36
2023-04-11T16:24:49.636Z,24.34
2023-04-11T16:27:20.025Z,24.36
2023-04-11T16:29:51.208Z,24.40
2023-04-11T16:32:19.567Z,24.38
2023-04-11T16:34:47.867Z,24.39
2023-04-11T16:37:18.339Z,24.35
2023-04-11T16:39:47.369Z,24.27
2023-04-11T16:42:16.343Z,24.28
2023-04-11T16:44:45.526Z,24.28
2023-04-11T16:47:14.205Z,24.29
2023-04-11T16:49:44.346Z,24.26
2023-04-11T16:52:13.497Z,24.26
2023-04-11T16:54:42.168Z,24.20
2023-04-11T16:57:10.937Z,24.13
2023-04-11T16:59:40.263Z,24.11
2023-04-11T17:02:08.824Z,24.08
2023-04-11T17:04:38.722Z,24.06
2023-04-11T17:07:10.072Z,24.00
2023-04-11T17:09:39.419Z,23.96
2023-04-11T17:12:07.929Z,23.96
2023-04-11T17:14:42.091Z,23.99
2023-04-11T17:17:10.598Z,23.96
2023-04-11T17:19:38.939Z,23.94
2023-04-11T17:22:08.491Z,23.89
2023-04-11T17:24:37.355Z,23.82
2023-04-11T17:27:09.527Z,23.81
2023-04-11T17:29:38.696Z,23.78
2023-04-11T17:32:07.364Z,23.75
2023-04-11T17:34:36.997Z,23.70
2023-04-11T17:37:06.614Z,23.67
2023-04-11T17:39:35.529Z,23.67
2023-04-11T17:42:06.747Z,23.66
2023-04-11T17:44:36.988Z,23.57
2023-04-11T17:47:06.920Z,23.58
2023-04-11T17:49:36.561Z,23.57
2023-04-11T17:52:05.108Z,23.60
2023-04-11T17:54:34.448Z,23.59
2023-04-11T17:57:03.650Z,23.56
2023-04-11T17:59:41.040Z,23.54
2023-04-11T18:02:10.180Z,23.56
2023-04-11T18:04:38.952Z,23.59
2023-04-11T18:07:08.503Z,23.52
2023-04-11T18:09:38.689Z,23.46
2023-04-11T18:12:07.171Z,23.43
2023-04-11T18:14:43.043Z,23.41
2023-04-11T18:17:12.502Z,23.31
2023-04-11T18:19:40.985Z,23.31
2023-04-11T18:22:12.066Z,23.32
2023-04-11T18:24:41.956Z,23.34
2023-04-11T18:27:12.229Z,23.32
2023-04-11T18:29:41.189Z,23.30
2023-04-11T18:32:09.571Z,23.25
2023-04-11T18:34:38.257Z,23.27
2023-04-11T18:37:06.759Z,23.25
2023-04-11T18:39:35.521Z,23.26
2023-04-11T18:42:04.837Z,23.28
2023-04-11T18:44:34.833Z,23.25
2023-04-11T18:47:06.004Z,23.24
2023-04-11T18:49:38.222Z,23.27
2023-04-11T18:52:06.700Z,23.25
2023-04-11T18:54:42.816Z,23.30
2023-04-11T18:57:14.451Z,23.27
2023-04-11T18:59:44.395Z,23.25
2023-04-11T19:02:17.348Z,23.23
2023-04-11T19:04:49.579Z,23.22
2023-04-11T19:07:18.108Z,23.23
2023-04-11T19:09:48.336Z,23.16
2023-04-11T19:12:17.376Z,23.14
2023-04-11T19:14:45.963Z,23.09
2023-04-11T19:17:15.631Z,23.12
2023-04-11T19:19:44.520Z,23.14
2023-04-11T19:22:12.817Z,23.13
2023-04-11T19:24:41.830Z,23.08
2023-04-11T19:27:10.279Z,23.03
2023-04-11T19:29:41.066Z,23.03
2023-04-11T19:32:09.722Z,23.05
2023-04-11T19:34:38.208Z,23.08
2023-04-11T19:37:08.261Z,23.07
2023-04-11T19:39:38.282Z,23.08
2023-04-11T19:42:08.861Z,23.05
2023-04-11T19:44:38.657Z,22.99
2023-04-11T19:47:06.927Z,22.99
2023-04-11T19:49:35.438Z,23.05
2023-04-11T19:52:03.807Z,23.07
2023-04-11T19:54:33.684Z,23.05
2023-04-11T19:57:02.455Z,23.05
2023-04-11T19:59:30.880Z,23.09
2023-04-11T20:02:01.760Z,23.08
2023-04-11T20:04:32.366Z,23.12
2023-04-11T20:07:01.138Z,23.12
2023-04-11T20:09:41.866Z,23.11
2023-04-11T20:12:13.215Z,23.10
2023-04-11T20:14:41.469Z,23.05
2023-04-11T20:17:12.958Z,23.02
2023-04-11T20:19:43.704Z,22.95
2023-04-11T20:22:17.585Z,22.88
2023-04-11T20:24:47.295Z,22.85
2023-04-11T20:27:16.311Z,22.84
2023-04-11T20:29:46.256Z,22.87
2023-04-11T20:32:14.762Z,22.84
2023-04-11T20:34:43.090Z,22.83
2023-04-11T20:37:13.299Z,22.73
2023-04-11T20:39:41.920Z,22.59
2023-04-11T20:42:10.977Z,22.44
2023-04-11T20:44:39.883Z,22.37
2023-04-11T20:47:09.318Z,22.36
2023-04-11T20:49:39.025Z,22.35
2023-04-11T20:52:07.974Z,22.27
2023-04-11T20:54:37.072Z,22.25
2023-04-11T20:57:05.456Z,22.22
2023-04-11T20:59:34.440Z,22.21
2023-04-11T21:02:02.821Z,22.16
2023-04-11T21:04:31.583Z,22.12
2023-04-11T21:07:01.504Z,22.05
2023-04-11T21:09:30.180Z,22.03
2023-04-11T21:11:58.624Z,22.00
2023-04-11T21:14:27.242Z,21.97
2023-04-11T21:16:56.644Z,21.90
2023-04-11T21:19:25.255Z,21.80
2023-04-11T21:21:57.371Z,21.74
2023-04-11T21:24:27.117Z,21.71
2023-04-11T21:26:55.490Z,21.69
2023-04-11T21:29:28.662Z,21.69
2023-04-11T21:31:57.101Z,21.62
2023-04-11T21:34:25.507Z,21.56
2023-04-11T21:36:54.657Z,21.53
2023-04-11T21:39:25.151Z,21.46
2023-04-11T21:41:53.637Z,21.30
2023-04-11T21:44:22.762Z,21.21
2023-04-11T21:46:52.031Z,21.18
2023-04-11T21:49:20.445Z,21.16
2023-04-11T21:51:53.443Z,21.15
2023-04-11T21:54:22.251Z,21.11
2023-04-11T21:56:51.072Z,21.08
2023-04-11T21:59:25.076Z,21.15
2023-04-11T22:01:53.894Z,21.12
2023-04-11T22:04:23.370Z,21.06
2023-04-11T22:06:54.351Z,21.05
2023-04-11T22:09:24.262Z,21.05
2023-04-11T22:11:53.083Z,21.09
2023-04-11T22:14:28.086Z,21.10
2023-04-11T22:16:58.468Z,21.15
2023-04-11T22:19:28.795Z,21.13
2023-04-11T22:22:03.722Z,21.14
2023-04-11T22:24:32.624Z,21.11
2023-04-11T22:27:04.495Z,21.16
2023-04-11T22:29:34.472Z,21.19
2023-04-11T22:32:04.358Z,21.12
2023-04-11T22:34:32.793Z,21.08
2023-04-11T22:37:02.283Z,21.00
2023-04-11T22:39:31.053Z,20.96
2023-04-11T22:42:00.612Z,20.91
2023-04-11T22:44:29.162Z,20.90
2023-04-11T22:47:09.049Z,20.93
2023-04-11T22:49:40.592Z,20.94
2023-04-11T22:52:10.772Z,20.90
2023-04-11T22:54:39.359Z,20.87
2023-04-11T22:57:07.635Z,20.90
2023-04-11T22:59:43.073Z,20.92
2023-04-11T23:02:12.250Z,20.89
2023-04-11T23:04:40.962Z,20.87
2023-04-11T23:07:10.765Z,20.92
2023-04-11T23:09:39.577Z,20.91
2023-04-11T23:12:11.850Z,20.87
2023-04-11T23:14:42.920Z,20.85
2023-04-11T23:17:12.628Z,20.86
2023-04-11T23:19:42.476Z,20.86
2023-04-11T23:22:11.719Z,20.80
2023-04-11T23:24:40.327Z,20.70
2023-04-11T23:27:09.018Z,20.61
2023-04-11T23:29:38.634Z,20.55
2023-04-11T23:32:07.726Z,20.53
2023-04-11T23:34:38.824Z,20.57
2023-04-11T23:37:08.304Z,20.60
2023-04-11T23:39:36.999Z,20.58
2023-04-11T23:42:07.854Z,20.53
2023-04-11T23:44:37.233Z,20.49
2023-04-11T23:47:09.843Z,20.44
2023-04-11T23:49:41.016Z,20.41
2023-04-11T23:52:11.269Z,20.38
2023-04-11T23:54:40.649Z,20.39
2023-04-11T23:57:09.203Z,20.35
2023-04-11T23:59:37.742Z,20.34
